sensor_id;sensor_type;location;lat;lon;timestamp;temperature;humidity
4701;DHT22;8724;51.272;6.554;2023-07-20T00:02:02;21.60;99.90
4701;DHT22;8724;51.272;6.554;2023-07-20T00:04:32;21.60;99.90
4701;DHT22;8724;51.272;6.554;2023-07-20T00:07:01;21.60;99.90
4701;DHT22;8724;51.272;6.554;2023-07-20T00:09:31;21.60;99.90
4701;DHT22;8724;51.272;6.554;2023-07-20T00:11:59;21.60;99.90
4701;DHT22;8724;51.272;6.554;2023-07-20T00:14:28;21.60;99.90
4701;DHT22;8724;51.272;6.554;2023-07-20T00:16:56;21.60;99.90
4701;DHT22;8724;51.272;6.554;2023-07-20T00:19:26;21.60;99.90
4701;DHT22;8724;51.272;6.554;2023-07-20T00:21:55;21.50;99.90
4701;DHT22;8724;51.272;6.554;2023-07-20T00:24:23;21.50;99.90
4701;DHT22;8724;51.272;6.554;2023-07-20T00:26:53;21.50;99.90
4701;DHT22;8724;51.272;6.554;2023-07-20T00:29:22;21.50;99.90
4701;DHT22;8724;51.272;6.554;2023-07-20T00:31:50;21.50;99.90
4701;DHT22;8724;51.272;6.554;2023-07-20T00:34:18;21.50;99.90
4701;DHT22;8724;51.272;6.554;2023-07-20T00:36:47;21.50;99.90
4701;DHT22;8724;51.272;6.554;2023-07-20T00:39:16;21.50;99.90
4701;DHT22;8724;51.272;6.554;2023-07-20T00:41:44;21.50;99.90
4701;DHT22;8724;51.272;6.554;2023-07-20T00:44:14;21.50;99.90
4701;DHT22;8724;51.272;6.554;2023-07-20T00:46:43;21.50;99.90
4701;DHT22;8724;51.272;6.554;2023-07-20T00:49:12;21.40;99.90
4701;DHT22;8724;51.272;6.554;2023-07-20T00:51:41;21.40;99.90
4701;DHT22;8724;51.272;6.554;2023-07-20T00:54:09;21.40;99.90
4701;DHT22;8724;51.272;6.554;2023-07-20T00:56:38;21.40;99.90
4701;DHT22;8724;51.272;6.554;2023-07-20T00:59:07;21.40;99.90
4701;DHT22;8724;51.272;6.554;2023-07-20T01:01:37;21.40;99.90
4701;DHT22;8724;51.272;6.554;2023-07-20T01:04:06;21.40;99.90
4701;DHT22;8724;51.272;6.554;2023-07-20T01:06:40;21.40;99.90
4701;DHT22;8724;51.272;6.554;2023-07-20T01:09:14;21.40;99.90
4701;DHT22;8724;51.272;6.554;2023-07-20T01:11:53;21.40;99.90
4701;DHT22;8724;51.272;6.554;2023-07-20T01:14:25;21.40;99.90
4701;DHT22;8724;51.272;6.554;2023-07-20T01:16:55;21.40;99.90
4701;DHT22;8724;51.272;6.554;2023-07-20T01:19:24;21.30;99.90
4701;DHT22;8724;51.272;6.554;2023-07-20T01:21:56;21.30;99.90
4701;DHT22;8724;51.272;6.554;2023-07-20T01:24:50;21.30;99.90
4701;DHT22;8724;51.272;6.554;2023-07-20T01:28:09;21.30;99.90
4701;DHT22;8724;51.272;6.554;2023-07-20T01:30:52;21.30;99.90
4701;DHT22;8724;51.272;6.554;2023-07-20T01:33:25;21.20;99.90
4701;DHT22;8724;51.272;6.554;2023-07-20T01:35:57;21.20;99.90
4701;DHT22;8724;51.272;6.554;2023-07-20T01:38:28;21.20;99.90
4701;DHT22;8724;51.272;6.554;2023-07-20T01:40:57;21.20;99.90
4701;DHT22;8724;51.272;6.554;2023-07-20T01:43:26;21.30;99.90
4701;DHT22;8724;51.272;6.554;2023-07-20T01:45:54;21.20;99.90
4701;DHT22;8724;51.272;6.554;2023-07-20T01:48:24;21.20;99.90
4701;DHT22;8724;51.272;6.554;2023-07-20T01:50:53;21.20;99.90
4701;DHT22;8724;51.272;6.554;2023-07-20T01:53:22;21.20;99.90
4701;DHT22;8724;51.272;6.554;2023-07-20T01:55:53;21.20;99.90
4701;DHT22;8724;51.272;6.554;2023-07-20T01:58:21;21.40;99.90
4701;DHT22;8724;51.272;6.554;2023-07-20T02:00:50;21.10;99.90
4701;DHT22;8724;51.272;6.554;2023-07-20T02:03:19;21.10;99.90
4701;DHT22;8724;51.272;6.554;2023-07-20T02:05:52;21.30;99.90
4701;DHT22;8724;51.272;6.554;2023-07-20T02:08:20;21.10;99.90
4701;DHT22;8724;51.272;6.554;2023-07-20T02:10:49;21.10;99.90
4701;DHT22;8724;51.272;6.554;2023-07-20T02:13:17;21.10;99.90
4701;DHT22;8724;51.272;6.554;2023-07-20T02:15:46;21.00;99.90
4701;DHT22;8724;51.272;6.554;2023-07-20T02:18:16;21.00;99.90
4701;DHT22;8724;51.272;6.554;2023-07-20T02:20:45;21.00;99.90
4701;DHT22;8724;51.272;6.554;2023-07-20T02:23:14;21.00;99.90
4701;DHT22;8724;51.272;6.554;2023-07-20T02:25:43;21.00;99.90
4701;DHT22;8724;51.272;6.554;2023-07-20T02:28:15;20.90;99.90
4701;DHT22;8724;51.272;6.554;2023-07-20T02:30:44;21.00;99.90
4701;DHT22;8724;51.272;6.554;2023-07-20T02:33:13;20.90;99.90
4701;DHT22;8724;51.272;6.554;2023-07-20T02:35:42;20.90;99.90
4701;DHT22;8724;51.272;6.554;2023-07-20T02:38:10;20.90;99.90
4701;DHT22;8724;51.272;6.554;2023-07-20T02:40:40;20.90;99.90
4701;DHT22;8724;51.272;6.554;2023-07-20T02:43:08;20.90;99.90
4701;DHT22;8724;51.272;6.554;2023-07-20T02:45:40;20.80;99.90
4701;DHT22;8724;51.272;6.554;2023-07-20T02:48:09;20.80;99.90
4701;DHT22;8724;51.272;6.554;2023-07-20T02:50:37;20.60;99.90
4701;DHT22;8724;51.272;6.554;2023-07-20T02:53:06;20.80;99.90
4701;DHT22;8724;51.272;6.554;2023-07-20T02:55:34;20.80;99.90
4701;DHT22;8724;51.272;6.554;2023-07-20T02:58:04;20.80;99.90
4701;DHT22;8724;51.272;6.554;2023-07-20T03:00:33;20.80;99.90
4701;DHT22;8724;51.272;6.554;2023-07-20T03:03:01;20.80;99.90
4701;DHT22;8724;51.272;6.554;2023-07-20T03:05:30;20.70;99.90
4701;DHT22;8724;51.272;6.554;2023-07-20T03:07:58;20.80;99.90
4701;DHT22;8724;51.272;6.554;2023-07-20T03:10:30;20.70;99.90
4701;DHT22;8724;51.272;6.554;2023-07-20T03:12:58;20.70;99.90
4701;DHT22;8724;51.272;6.554;2023-07-20T03:15:28;20.70;99.90
4701;DHT22;8724;51.272;6.554;2023-07-20T03:17:57;20.70;99.90
4701;DHT22;8724;51.272;6.554;2023-07-20T03:20:27;20.70;99.90
4701;DHT22;8724;51.272;6.554;2023-07-20T03:22:56;20.70;99.90
4701;DHT22;8724;51.272;6.554;2023-07-20T03:25:24;20.70;99.90
4701;DHT22;8724;51.272;6.554;2023-07-20T03:27:55;20.70;99.90
4701;DHT22;8724;51.272;6.554;2023-07-20T03:30:23;20.60;99.90
4701;DHT22;8724;51.272;6.554;2023-07-20T03:32:54;20.70;99.90
4701;DHT22;8724;51.272;6.554;2023-07-20T03:35:23;20.70;99.90
4701;DHT22;8724;51.272;6.554;2023-07-20T03:37:52;20.60;99.90
4701;DHT22;8724;51.272;6.554;2023-07-20T03:40:20;20.70;99.90
4701;DHT22;8724;51.272;6.554;2023-07-20T03:42:51;20.60;99.90
4701;DHT22;8724;51.272;6.554;2023-07-20T03:45:20;20.70;99.90
4701;DHT22;8724;51.272;6.554;2023-07-20T03:47:51;20.60;99.90
4701;DHT22;8724;51.272;6.554;2023-07-20T03:50:21;20.60;99.90
4701;DHT22;8724;51.272;6.554;2023-07-20T03:52:49;20.60;99.90
4701;DHT22;8724;51.272;6.554;2023-07-20T03:55:18;20.60;99.90
4701;DHT22;8724;51.272;6.554;2023-07-20T03:57:46;20.60;99.90
4701;DHT22;8724;51.272;6.554;2023-07-20T04:00:18;20.60;99.90
4701;DHT22;8724;51.272;6.554;2023-07-20T04:02:46;20.60;99.90
4701;DHT22;8724;51.272;6.554;2023-07-20T04:05:15;20.60;99.90
4701;DHT22;8724;51.272;6.554;2023-07-20T04:07:45;20.60;99.90
4701;DHT22;8724;51.272;6.554;2023-07-20T04:10:14;20.60;99.90
4701;DHT22;8724;51.272;6.554;2023-07-20T04:12:42;20.50;99.90
4701;DHT22;8724;51.272;6.554;2023-07-20T04:15:11;20.50;99.90
4701;DHT22;8724;51.272;6.554;2023-07-20T04:17:40;20.50;99.90
4701;DHT22;8724;51.272;6.554;2023-07-20T04:20:09;20.50;99.90
4701;DHT22;8724;51.272;6.554;2023-07-20T04:22:38;20.50;99.90
4701;DHT22;8724;51.272;6.554;2023-07-20T04:25:12;20.40;99.90
4701;DHT22;8724;51.272;6.554;2023-07-20T04:27:40;20.40;99.90
4701;DHT22;8724;51.272;6.554;2023-07-20T04:30:10;20.40;99.90
4701;DHT22;8724;51.272;6.554;2023-07-20T04:32:39;20.30;99.90
4701;DHT22;8724;51.272;6.554;2023-07-20T04:35:17;20.30;99.90
4701;DHT22;8724;51.272;6.554;2023-07-20T04:37:48;20.30;99.90
4701;DHT22;8724;51.272;6.554;2023-07-20T04:40:22;20.20;99.90
4701;DHT22;8724;51.272;6.554;2023-07-20T04:42:51;20.20;99.90
4701;DHT22;8724;51.272;6.554;2023-07-20T04:45:20;20.20;99.90
4701;DHT22;8724;51.272;6.554;2023-07-20T04:47:50;20.20;99.90
4701;DHT22;8724;51.272;6.554;2023-07-20T04:50:19;20.20;99.90
4701;DHT22;8724;51.272;6.554;2023-07-20T04:52:47;20.20;99.90
4701;DHT22;8724;51.272;6.554;2023-07-20T04:55:19;20.20;99.90
4701;DHT22;8724;51.272;6.554;2023-07-20T04:57:49;20.10;99.90
4701;DHT22;8724;51.272;6.554;2023-07-20T05:00:18;20.10;99.90
4701;DHT22;8724;51.272;6.554;2023-07-20T05:02:48;20.10;99.90
4701;DHT22;8724;51.272;6.554;2023-07-20T05:05:18;20.10;99.90
4701;DHT22;8724;51.272;6.554;2023-07-20T05:07:47;20.10;99.90
4701;DHT22;8724;51.272;6.554;2023-07-20T05:10:16;20.10;99.90
4701;DHT22;8724;51.272;6.554;2023-07-20T05:12:44;20.20;99.90
4701;DHT22;8724;51.272;6.554;2023-07-20T05:15:14;20.20;99.90
4701;DHT22;8724;51.272;6.554;2023-07-20T05:17:43;20.20;99.90
4701;DHT22;8724;51.272;6.554;2023-07-20T05:20:12;20.20;99.90
4701;DHT22;8724;51.272;6.554;2023-07-20T05:22:40;20.20;99.90
4701;DHT22;8724;51.272;6.554;2023-07-20T05:25:09;20.20;99.90
4701;DHT22;8724;51.272;6.554;2023-07-20T05:27:39;20.20;99.90
4701;DHT22;8724;51.272;6.554;2023-07-20T05:30:08;20.30;99.90
4701;DHT22;8724;51.272;6.554;2023-07-20T05:32:38;20.20;99.90
4701;DHT22;8724;51.272;6.554;2023-07-20T05:35:07;20.20;99.90
4701;DHT22;8724;51.272;6.554;2023-07-20T05:37:38;20.20;99.90
4701;DHT22;8724;51.272;6.554;2023-07-20T05:40:08;20.20;99.90
4701;DHT22;8724;51.272;6.554;2023-07-20T05:42:39;20.10;99.90
4701;DHT22;8724;51.272;6.554;2023-07-20T05:45:07;20.00;99.90
4701;DHT22;8724;51.272;6.554;2023-07-20T05:47:37;20.00;99.90
4701;DHT22;8724;51.272;6.554;2023-07-20T05:50:06;20.00;99.90
4701;DHT22;8724;51.272;6.554;2023-07-20T05:52:35;20.00;99.90
4701;DHT22;8724;51.272;6.554;2023-07-20T05:55:06;20.00;99.90
4701;DHT22;8724;51.272;6.554;2023-07-20T05:57:35;20.00;99.90
4701;DHT22;8724;51.272;6.554;2023-07-20T06:00:07;20.00;99.90
4701;DHT22;8724;51.272;6.554;2023-07-20T06:02:43;20.00;99.90
4701;DHT22;8724;51.272;6.554;2023-07-20T06:05:11;20.00;99.90
4701;DHT22;8724;51.272;6.554;2023-07-20T06:07:40;20.00;99.90
4701;DHT22;8724;51.272;6.554;2023-07-20T06:10:09;20.00;99.90
4701;DHT22;8724;51.272;6.554;2023-07-20T06:12:37;20.00;99.90
4701;DHT22;8724;51.272;6.554;2023-07-20T06:15:10;20.00;99.90
4701;DHT22;8724;51.272;6.554;2023-07-20T06:17:53;20.00;99.90
4701;DHT22;8724;51.272;6.554;2023-07-20T06:20:22;20.00;99.90
4701;DHT22;8724;51.272;6.554;2023-07-20T06:22:51;20.10;99.90
4701;DHT22;8724;51.272;6.554;2023-07-20T06:25:19;20.10;99.90
4701;DHT22;8724;51.272;6.554;2023-07-20T06:27:49;20.10;99.90
4701;DHT22;8724;51.272;6.554;2023-07-20T06:30:18;20.10;99.90
4701;DHT22;8724;51.272;6.554;2023-07-20T06:32:47;20.20;99.90
4701;DHT22;8724;51.272;6.554;2023-07-20T06:35:17;20.20;99.90
4701;DHT22;8724;51.272;6.554;2023-07-20T06:37:45;20.20;99.90
4701;DHT22;8724;51.272;6.554;2023-07-20T06:40:14;20.20;99.90
4701;DHT22;8724;51.272;6.554;2023-07-20T06:42:45;20.20;99.90
4701;DHT22;8724;51.272;6.554;2023-07-20T06:45:16;20.30;99.90
4701;DHT22;8724;51.272;6.554;2023-07-20T06:47:45;20.30;99.90
4701;DHT22;8724;51.272;6.554;2023-07-20T06:50:13;20.30;99.90
4701;DHT22;8724;51.272;6.554;2023-07-20T06:52:45;20.20;99.90
4701;DHT22;8724;51.272;6.554;2023-07-20T06:55:15;20.20;99.90
4701;DHT22;8724;51.272;6.554;2023-07-20T06:57:50;20.20;99.90
4701;DHT22;8724;51.272;6.554;2023-07-20T07:00:24;20.20;99.90
4701;DHT22;8724;51.272;6.554;2023-07-20T07:02:53;20.10;99.90
4701;DHT22;8724;51.272;6.554;2023-07-20T07:05:21;20.20;99.90
4701;DHT22;8724;51.272;6.554;2023-07-20T07:07:51;20.20;99.90
4701;DHT22;8724;51.272;6.554;2023-07-20T07:10:19;20.20;99.90
4701;DHT22;8724;51.272;6.554;2023-07-20T07:12:48;20.20;99.90
4701;DHT22;8724;51.272;6.554;2023-07-20T07:15:16;20.20;99.90
4701;DHT22;8724;51.272;6.554;2023-07-20T07:17:45;20.30;99.90
4701;DHT22;8724;51.272;6.554;2023-07-20T07:20:13;20.30;99.90
4701;DHT22;8724;51.272;6.554;2023-07-20T07:22:45;20.30;99.90
4701;DHT22;8724;51.272;6.554;2023-07-20T07:25:15;20.30;99.90
4701;DHT22;8724;51.272;6.554;2023-07-20T07:27:50;20.30;99.90
4701;DHT22;8724;51.272;6.554;2023-07-20T07:30:20;20.30;99.90
4701;DHT22;8724;51.272;6.554;2023-07-20T07:32:49;20.30;99.90
4701;DHT22;8724;51.272;6.554;2023-07-20T07:35:18;20.30;99.90
4701;DHT22;8724;51.272;6.554;2023-07-20T07:37:46;20.40;99.90
4701;DHT22;8724;51.272;6.554;2023-07-20T07:40:19;20.30;99.90
4701;DHT22;8724;51.272;6.554;2023-07-20T07:42:47;20.40;99.90
4701;DHT22;8724;51.272;6.554;2023-07-20T07:45:16;20.40;99.90
4701;DHT22;8724;51.272;6.554;2023-07-20T07:47:44;20.40;99.90
4701;DHT22;8724;51.272;6.554;2023-07-20T07:50:13;20.40;99.90
4701;DHT22;8724;51.272;6.554;2023-07-20T07:52:41;20.40;99.90
4701;DHT22;8724;51.272;6.554;2023-07-20T07:55:10;20.40;99.90
4701;DHT22;8724;51.272;6.554;2023-07-20T07:57:40;20.40;99.90
4701;DHT22;8724;51.272;6.554;2023-07-20T08:00:09;20.40;99.90
4701;DHT22;8724;51.272;6.554;2023-07-20T08:02:42;20.50;99.90
4701;DHT22;8724;51.272;6.554;2023-07-20T08:05:11;20.50;99.90
4701;DHT22;8724;51.272;6.554;2023-07-20T08:07:39;20.50;99.90
4701;DHT22;8724;51.272;6.554;2023-07-20T08:10:09;20.50;99.90
4701;DHT22;8724;51.272;6.554;2023-07-20T08:12:38;20.60;99.90
4701;DHT22;8724;51.272;6.554;2023-07-20T08:15:11;20.60;99.90
4701;DHT22;8724;51.272;6.554;2023-07-20T08:17:40;20.60;99.90
4701;DHT22;8724;51.272;6.554;2023-07-20T08:20:10;20.60;99.90
4701;DHT22;8724;51.272;6.554;2023-07-20T08:22:39;20.60;99.90
4701;DHT22;8724;51.272;6.554;2023-07-20T08:25:08;20.60;99.90
4701;DHT22;8724;51.272;6.554;2023-07-20T08:27:37;20.60;99.90
4701;DHT22;8724;51.272;6.554;2023-07-20T08:30:08;20.70;99.90
4701;DHT22;8724;51.272;6.554;2023-07-20T08:32:37;20.70;99.90
4701;DHT22;8724;51.272;6.554;2023-07-20T08:35:07;20.60;99.90
4701;DHT22;8724;51.272;6.554;2023-07-20T08:37:35;20.60;99.90
4701;DHT22;8724;51.272;6.554;2023-07-20T08:40:05;20.50;99.90
4701;DHT22;8724;51.272;6.554;2023-07-20T08:42:37;20.50;99.90
4701;DHT22;8724;51.272;6.554;2023-07-20T08:45:09;20.50;99.90
4701;DHT22;8724;51.272;6.554;2023-07-20T08:47:42;20.50;99.90
4701;DHT22;8724;51.272;6.554;2023-07-20T08:50:12;20.50;99.90
4701;DHT22;8724;51.272;6.554;2023-07-20T08:52:42;20.50;99.90
4701;DHT22;8724;51.272;6.554;2023-07-20T08:55:11;20.50;99.90
4701;DHT22;8724;51.272;6.554;2023-07-20T08:57:40;20.60;99.90
4701;DHT22;8724;51.272;6.554;2023-07-20T09:00:13;20.40;99.90
4701;DHT22;8724;51.272;6.554;2023-07-20T09:02:42;20.60;99.90
4701;DHT22;8724;51.272;6.554;2023-07-20T09:05:13;20.60;99.90
4701;DHT22;8724;51.272;6.554;2023-07-20T09:07:42;20.60;99.90
4701;DHT22;8724;51.272;6.554;2023-07-20T09:10:10;20.60;99.90
4701;DHT22;8724;51.272;6.554;2023-07-20T09:12:42;20.60;99.90
4701;DHT22;8724;51.272;6.554;2023-07-20T09:15:12;20.60;99.90
4701;DHT22;8724;51.272;6.554;2023-07-20T09:17:45;20.60;99.90
4701;DHT22;8724;51.272;6.554;2023-07-20T09:20:15;20.70;99.90
4701;DHT22;8724;51.272;6.554;2023-07-20T09:22:47;20.70;99.90
4701;DHT22;8724;51.272;6.554;2023-07-20T09:25:17;20.80;99.90
4701;DHT22;8724;51.272;6.554;2023-07-20T09:27:49;20.80;99.90
4701;DHT22;8724;51.272;6.554;2023-07-20T09:30:25;20.80;99.90
4701;DHT22;8724;51.272;6.554;2023-07-20T09:32:56;20.80;99.90
4701;DHT22;8724;51.272;6.554;2023-07-20T09:35:26;20.80;99.90
4701;DHT22;8724;51.272;6.554;2023-07-20T09:38:09;20.80;99.90
4701;DHT22;8724;51.272;6.554;2023-07-20T09:40:41;20.80;99.90
4701;DHT22;8724;51.272;6.554;2023-07-20T09:43:15;20.90;99.90
4701;DHT22;8724;51.272;6.554;2023-07-20T09:45:49;20.90;99.90
4701;DHT22;8724;51.272;6.554;2023-07-20T09:48:24;20.90;99.90
4701;DHT22;8724;51.272;6.554;2023-07-20T09:50:56;20.90;99.90
4701;DHT22;8724;51.272;6.554;2023-07-20T09:53:25;21.00;99.90
4701;DHT22;8724;51.272;6.554;2023-07-20T09:55:54;20.90;99.90
4701;DHT22;8724;51.272;6.554;2023-07-20T09:58:22;21.00;99.90
4701;DHT22;8724;51.272;6.554;2023-07-20T10:00:57;20.90;99.90
4701;DHT22;8724;51.272;6.554;2023-07-20T10:03:29;20.90;99.90
4701;DHT22;8724;51.272;6.554;2023-07-20T10:06:06;20.90;99.90
4701;DHT22;8724;51.272;6.554;2023-07-20T10:08:39;21.00;99.90
4701;DHT22;8724;51.272;6.554;2023-07-20T10:11:12;21.00;99.90
4701;DHT22;8724;51.272;6.554;2023-07-20T10:13:44;21.00;99.90
4701;DHT22;8724;51.272;6.554;2023-07-20T10:16:22;21.10;99.90
4701;DHT22;8724;51.272;6.554;2023-07-20T10:18:55;21.10;99.90
4701;DHT22;8724;51.272;6.554;2023-07-20T10:21:27;21.10;99.90
4701;DHT22;8724;51.272;6.554;2023-07-20T10:24:01;21.10;99.90
4701;DHT22;8724;51.272;6.554;2023-07-20T10:26:30;21.10;99.90
4701;DHT22;8724;51.272;6.554;2023-07-20T10:29:02;21.20;99.90
4701;DHT22;8724;51.272;6.554;2023-07-20T10:31:34;21.20;99.90
4701;DHT22;8724;51.272;6.554;2023-07-20T10:34:03;21.20;99.90
4701;DHT22;8724;51.272;6.554;2023-07-20T10:36:32;21.20;99.90
4701;DHT22;8724;51.272;6.554;2023-07-20T10:39:01;21.20;99.90
4701;DHT22;8724;51.272;6.554;2023-07-20T10:41:33;21.20;99.90
4701;DHT22;8724;51.272;6.554;2023-07-20T10:44:03;21.20;99.90
4701;DHT22;8724;51.272;6.554;2023-07-20T10:46:42;21.30;99.90
4701;DHT22;8724;51.272;6.554;2023-07-20T10:49:14;21.30;99.90
4701;DHT22;8724;51.272;6.554;2023-07-20T10:51:44;21.20;99.90
4701;DHT22;8724;51.272;6.554;2023-07-20T10:54:33;21.20;99.90
4701;DHT22;8724;51.272;6.554;2023-07-20T10:57:21;21.30;99.90
4701;DHT22;8724;51.272;6.554;2023-07-20T10:59:50;21.30;99.90
4701;DHT22;8724;51.272;6.554;2023-07-20T11:02:20;21.30;99.90
4701;DHT22;8724;51.272;6.554;2023-07-20T11:04:48;21.30;99.90
4701;DHT22;8724;51.272;6.554;2023-07-20T11:07:21;21.30;99.90
4701;DHT22;8724;51.272;6.554;2023-07-20T11:10:13;21.40;99.90
4701;DHT22;8724;51.272;6.554;2023-07-20T11:13:16;21.40;99.90
4701;DHT22;8724;51.272;6.554;2023-07-20T11:15:45;21.40;99.90
4701;DHT22;8724;51.272;6.554;2023-07-20T11:18:16;21.40;99.90
4701;DHT22;8724;51.272;6.554;2023-07-20T11:20:50;21.50;99.90
4701;DHT22;8724;51.272;6.554;2023-07-20T11:23:20;21.50;99.90
4701;DHT22;8724;51.272;6.554;2023-07-20T11:25:49;21.50;99.90
4701;DHT22;8724;51.272;6.554;2023-07-20T11:28:18;21.50;99.90
4701;DHT22;8724;51.272;6.554;2023-07-20T11:30:52;21.50;99.90
4701;DHT22;8724;51.272;6.554;2023-07-20T11:33:23;21.60;99.90
4701;DHT22;8724;51.272;6.554;2023-07-20T11:35:52;21.60;99.90
4701;DHT22;8724;51.272;6.554;2023-07-20T11:38:21;21.70;99.90
4701;DHT22;8724;51.272;6.554;2023-07-20T11:40:50;21.70;99.90
4701;DHT22;8724;51.272;6.554;2023-07-20T11:43:19;21.70;99.90
4701;DHT22;8724;51.272;6.554;2023-07-20T11:45:50;21.80;99.90
4701;DHT22;8724;51.272;6.554;2023-07-20T11:48:18;21.80;99.90
4701;DHT22;8724;51.272;6.554;2023-07-20T11:50:48;21.80;99.90
4701;DHT22;8724;51.272;6.554;2023-07-20T11:53:17;21.90;99.90
4701;DHT22;8724;51.272;6.554;2023-07-20T11:55:46;21.90;99.90
4701;DHT22;8724;51.272;6.554;2023-07-20T11:58:15;21.90;99.90
4701;DHT22;8724;51.272;6.554;2023-07-20T12:00:45;22.00;99.90
4701;DHT22;8724;51.272;6.554;2023-07-20T12:03:13;22.00;99.90
4701;DHT22;8724;51.272;6.554;2023-07-20T12:05:42;21.90;99.90
4701;DHT22;8724;51.272;6.554;2023-07-20T12:08:29;21.90;99.90
4701;DHT22;8724;51.272;6.554;2023-07-20T12:10:57;21.90;99.90
4701;DHT22;8724;51.272;6.554;2023-07-20T12:13:36;21.90;99.90
4701;DHT22;8724;51.272;6.554;2023-07-20T12:16:11;21.60;99.90
4701;DHT22;8724;51.272;6.554;2023-07-20T12:18:42;21.80;99.90
4701;DHT22;8724;51.272;6.554;2023-07-20T12:21:11;21.90;99.90
4701;DHT22;8724;51.272;6.554;2023-07-20T12:23:41;21.90;99.90
4701;DHT22;8724;51.272;6.554;2023-07-20T12:26:10;22.00;99.90
4701;DHT22;8724;51.272;6.554;2023-07-20T12:28:40;22.10;99.90
4701;DHT22;8724;51.272;6.554;2023-07-20T12:31:09;22.10;99.90
4701;DHT22;8724;51.272;6.554;2023-07-20T12:33:38;22.10;99.90
4701;DHT22;8724;51.272;6.554;2023-07-20T12:36:06;22.10;99.90
4701;DHT22;8724;51.272;6.554;2023-07-20T12:38:35;22.10;99.90
4701;DHT22;8724;51.272;6.554;2023-07-20T12:41:04;22.10;99.90
4701;DHT22;8724;51.272;6.554;2023-07-20T12:43:33;22.10;99.90
4701;DHT22;8724;51.272;6.554;2023-07-20T12:46:01;22.00;99.90
4701;DHT22;8724;51.272;6.554;2023-07-20T12:48:33;22.10;99.90
4701;DHT22;8724;51.272;6.554;2023-07-20T12:51:02;22.10;99.90
4701;DHT22;8724;51.272;6.554;2023-07-20T12:53:31;22.00;99.90
4701;DHT22;8724;51.272;6.554;2023-07-20T12:56:01;22.00;99.90
4701;DHT22;8724;51.272;6.554;2023-07-20T12:58:51;22.00;99.90
4701;DHT22;8724;51.272;6.554;2023-07-20T13:01:19;22.00;99.90
4701;DHT22;8724;51.272;6.554;2023-07-20T13:03:48;22.00;99.90
4701;DHT22;8724;51.272;6.554;2023-07-20T13:06:37;22.00;99.90
4701;DHT22;8724;51.272;6.554;2023-07-20T13:09:05;21.70;99.90
4701;DHT22;8724;51.272;6.554;2023-07-20T13:11:34;22.00;99.90
4701;DHT22;8724;51.272;6.554;2023-07-20T13:14:04;22.00;99.90
4701;DHT22;8724;51.272;6.554;2023-07-20T13:16:33;22.00;99.90
4701;DHT22;8724;51.272;6.554;2023-07-20T13:19:03;22.00;99.90
4701;DHT22;8724;51.272;6.554;2023-07-20T13:21:31;22.00;99.90
4701;DHT22;8724;51.272;6.554;2023-07-20T13:23:59;21.90;99.90
4701;DHT22;8724;51.272;6.554;2023-07-20T13:26:28;21.90;99.90
4701;DHT22;8724;51.272;6.554;2023-07-20T13:28:57;21.90;99.90
4701;DHT22;8724;51.272;6.554;2023-07-20T13:31:27;21.90;99.90
4701;DHT22;8724;51.272;6.554;2023-07-20T13:33:59;22.00;99.90
4701;DHT22;8724;51.272;6.554;2023-07-20T13:36:30;22.00;99.90
4701;DHT22;8724;51.272;6.554;2023-07-20T13:38:58;22.00;99.90
4701;DHT22;8724;51.272;6.554;2023-07-20T13:41:27;22.00;99.90
4701;DHT22;8724;51.272;6.554;2023-07-20T13:43:57;22.00;99.90
4701;DHT22;8724;51.272;6.554;2023-07-20T13:46:27;22.00;99.90
4701;DHT22;8724;51.272;6.554;2023-07-20T13:48:58;22.00;99.90
4701;DHT22;8724;51.272;6.554;2023-07-20T13:51:26;22.00;99.90
4701;DHT22;8724;51.272;6.554;2023-07-20T13:53:55;22.00;99.90
4701;DHT22;8724;51.272;6.554;2023-07-20T13:56:24;22.00;99.90
4701;DHT22;8724;51.272;6.554;2023-07-20T13:58:52;22.10;99.90
4701;DHT22;8724;51.272;6.554;2023-07-20T14:01:24;22.10;99.90
4701;DHT22;8724;51.272;6.554;2023-07-20T14:03:57;22.10;99.90
4701;DHT22;8724;51.272;6.554;2023-07-20T14:06:32;22.10;99.90
4701;DHT22;8724;51.272;6.554;2023-07-20T14:09:01;22.30;99.90
4701;DHT22;8724;51.272;6.554;2023-07-20T14:11:30;22.10;99.90
4701;DHT22;8724;51.272;6.554;2023-07-20T14:14:01;22.10;99.90
4701;DHT22;8724;51.272;6.554;2023-07-20T14:16:30;22.20;99.90
4701;DHT22;8724;51.272;6.554;2023-07-20T14:19:01;22.30;99.90
4701;DHT22;8724;51.272;6.554;2023-07-20T14:21:32;22.40;99.90
4701;DHT22;8724;51.272;6.554;2023-07-20T14:24:01;22.20;99.90
4701;DHT22;8724;51.272;6.554;2023-07-20T14:26:29;22.50;99.90
4701;DHT22;8724;51.272;6.554;2023-07-20T14:29:00;22.50;99.90
4701;DHT22;8724;51.272;6.554;2023-07-20T14:31:28;22.50;99.90
4701;DHT22;8724;51.272;6.554;2023-07-20T14:33:59;22.70;99.90
4701;DHT22;8724;51.272;6.554;2023-07-20T14:36:29;22.70;99.90
4701;DHT22;8724;51.272;6.554;2023-07-20T14:39:00;22.80;99.90
4701;DHT22;8724;51.272;6.554;2023-07-20T14:41:29;22.90;99.90
4701;DHT22;8724;51.272;6.554;2023-07-20T14:43:57;22.90;99.90
4701;DHT22;8724;51.272;6.554;2023-07-20T14:46:26;23.00;99.90
4701;DHT22;8724;51.272;6.554;2023-07-20T14:48:55;23.00;99.90
4701;DHT22;8724;51.272;6.554;2023-07-20T14:51:23;23.00;99.90
4701;DHT22;8724;51.272;6.554;2023-07-20T14:54:06;23.10;99.90
4701;DHT22;8724;51.272;6.554;2023-07-20T14:56:34;23.10;99.90
4701;DHT22;8724;51.272;6.554;2023-07-20T14:59:04;23.10;99.90
4701;DHT22;8724;51.272;6.554;2023-07-20T15:01:33;23.20;99.90
4701;DHT22;8724;51.272;6.554;2023-07-20T15:04:01;23.20;99.90
4701;DHT22;8724;51.272;6.554;2023-07-20T15:06:30;23.30;99.90
4701;DHT22;8724;51.272;6.554;2023-07-20T15:08:59;23.30;99.90
4701;DHT22;8724;51.272;6.554;2023-07-20T15:11:29;23.40;99.90
4701;DHT22;8724;51.272;6.554;2023-07-20T15:13:58;23.40;99.90
4701;DHT22;8724;51.272;6.554;2023-07-20T15:16:26;23.40;99.90
4701;DHT22;8724;51.272;6.554;2023-07-20T15:18:55;23.30;99.90
4701;DHT22;8724;51.272;6.554;2023-07-20T15:21:23;23.40;99.90
4701;DHT22;8724;51.272;6.554;2023-07-20T15:23:57;23.40;99.90
4701;DHT22;8724;51.272;6.554;2023-07-20T15:26:26;23.50;99.90
4701;DHT22;8724;51.272;6.554;2023-07-20T15:28:55;23.60;99.90
4701;DHT22;8724;51.272;6.554;2023-07-20T15:31:24;23.80;99.90
4701;DHT22;8724;51.272;6.554;2023-07-20T15:33:56;24.00;99.90
4701;DHT22;8724;51.272;6.554;2023-07-20T15:36:24;24.10;99.90
4701;DHT22;8724;51.272;6.554;2023-07-20T15:38:53;24.20;99.90
4701;DHT22;8724;51.272;6.554;2023-07-20T15:41:21;24.30;99.90
4701;DHT22;8724;51.272;6.554;2023-07-20T15:43:51;24.50;99.90
4701;DHT22;8724;51.272;6.554;2023-07-20T15:46:45;24.70;99.90
4701;DHT22;8724;51.272;6.554;2023-07-20T15:49:16;24.70;99.90
4701;DHT22;8724;51.272;6.554;2023-07-20T15:51:44;24.80;99.90
4701;DHT22;8724;51.272;6.554;2023-07-20T15:54:14;24.90;99.90
4701;DHT22;8724;51.272;6.554;2023-07-20T15:56:43;25.10;99.90
4701;DHT22;8724;51.272;6.554;2023-07-20T15:59:13;25.20;99.90
4701;DHT22;8724;51.272;6.554;2023-07-20T16:01:44;25.40;99.90
4701;DHT22;8724;51.272;6.554;2023-07-20T16:04:13;25.40;99.90
4701;DHT22;8724;51.272;6.554;2023-07-20T16:06:42;25.50;99.90
4701;DHT22;8724;51.272;6.554;2023-07-20T16:09:11;25.40;99.90
4701;DHT22;8724;51.272;6.554;2023-07-20T16:11:41;25.20;99.90
4701;DHT22;8724;51.272;6.554;2023-07-20T16:14:11;25.00;99.90
4701;DHT22;8724;51.272;6.554;2023-07-20T16:16:40;24.90;99.90
4701;DHT22;8724;51.272;6.554;2023-07-20T16:19:10;24.80;99.90
4701;DHT22;8724;51.272;6.554;2023-07-20T16:21:38;24.70;99.90
4701;DHT22;8724;51.272;6.554;2023-07-20T16:24:07;24.60;99.90